Time;durP1;ratioP1;P1;durP2;ratioP2;P2;SDS_P1;SDS_P2;PMS_P1;PMS_P2;Temp;Humidity;BMP_temperature;BMP_pressure;BME280_temperature;BME280_humidity;BME280_pressure;Samples;Min_cycle;Max_cycle;Signal;HPM_P1;HPM_P2
2023/10/27 00:39:24;;;;;;;;;;;12.80;99.90;;;;;;2624023;46;20384;-78
2023/10/27 00:41:54;;;;;;;;;;;11.40;99.90;;;;;;2620970;47;20435;-78
2023/10/27 00:44:24;;;;;;;;;;;11.40;99.90;;;;;;2621246;47;19980;-78
2023/10/27 00:46:55;;;;;;;;;;;11.30;99.90;;;;;;2621468;47;19939;-77
2023/10/27 00:49:24;;;;;;;;;;;11.30;99.90;;;;;;2629468;46;19943;-78
2023/10/27 00:51:55;;;;;;;;;;;11.30;99.90;;;;;;2624623;47;19945;-78
2023/10/27 00:54:28;;;;;;;;;;;11.30;99.90;;;;;;2622156;54;19950;-77
2023/10/27 00:56:58;;;;;;;;;;;11.40;99.90;;;;;;2619899;39;21047;-77
2023/10/27 00:59:28;;;;;;;;;;;11.40;99.90;;;;;;2618948;47;20033;-77
2023/10/27 01:01:58;;;;;;;;;;;11.40;99.90;;;;;;2623177;47;20050;-77
2023/10/27 01:04:29;;;;;;;;;;;11.80;99.90;;;;;;2623872;47;19935;-77
2023/10/27 01:06:59;;;;;;;;;;;11.40;99.90;;;;;;2620829;54;19939;-77
2023/10/27 01:09:32;;;;;;;;;;;11.40;99.90;;;;;;2620150;54;20048;-78
2023/10/27 01:12:01;;;;;;;;;;;11.40;99.90;;;;;;2621829;54;20468;-78
2023/10/27 01:14:31;;;;;;;;;;;11.40;99.90;;;;;;2619862;54;19996;-77
2023/10/27 01:17:01;;;;;;;;;;;11.40;99.90;;;;;;2619682;47;20492;-78
2023/10/27 01:19:31;;;;;;;;;;;11.40;99.90;;;;;;2620371;47;19946;-77
2023/10/27 01:22:01;;;;;;;;;;;11.40;99.90;;;;;;2618912;46;19946;-77
2023/10/27 01:24:34;;;;;;;;;;;11.40;99.90;;;;;;2619324;54;19957;-78
2023/10/27 01:27:03;;;;;;;;;;;11.40;99.90;;;;;;2619585;54;19946;-77
2023/10/27 01:29:33;;;;;;;;;;;11.40;99.90;;;;;;2618841;47;19939;-78
2023/10/27 01:32:03;;;;;;;;;;;11.40;99.90;;;;;;2618837;47;19946;-77
2023/10/27 01:34:33;;;;;;;;;;;11.40;99.90;;;;;;2620494;47;19946;-77
2023/10/27 01:37:03;;;;;;;;;;;11.40;99.90;;;;;;2620687;39;20353;-76
2023/10/27 01:39:36;;;;;;;;;;;11.40;99.90;;;;;;2620652;47;19994;-78
2023/10/27 01:42:06;;;;;;;;;;;11.40;99.90;;;;;;2620888;54;19939;-77
2023/10/27 01:44:36;;;;;;;;;;;11.30;99.90;;;;;;2620371;54;19946;-77
2023/10/27 01:47:06;;;;;;;;;;;11.30;99.90;;;;;;2620858;46;20421;-77
2023/10/27 01:49:36;;;;;;;;;;;11.30;99.90;;;;;;2629452;47;19962;-76
2023/10/27 01:52:06;;;;;;;;;;;11.30;99.90;;;;;;2624862;54;20429;-77
2023/10/27 01:54:38;;;;;;;;;;;11.30;99.90;;;;;;2619151;47;20428;-77
2023/10/27 01:57:08;;;;;;;;;;;11.40;99.90;;;;;;2620486;54;19947;-77
2023/10/27 01:59:38;;;;;;;;;;;11.40;99.90;;;;;;2626171;54;19946;-77
2023/10/27 02:02:08;;;;;;;;;;;11.30;99.90;;;;;;2627302;47;19938;-78
2023/10/27 02:04:38;;;;;;;;;;;12.30;99.90;;;;;;2626940;54;19942;-78
2023/10/27 02:07:08;;;;;;;;;;;11.30;99.90;;;;;;2625799;54;19939;-77
2023/10/27 02:09:40;;;;;;;;;;;11.30;99.90;;;;;;2619334;54;19945;-77
2023/10/27 02:12:10;;;;;;;;;;;11.30;99.90;;;;;;2620983;54;19950;-77
2023/10/27 02:14:41;;;;;;;;;;;11.30;99.90;;;;;;2619206;39;20334;-77
2023/10/27 02:17:11;;;;;;;;;;;11.30;99.90;;;;;;2621880;47;20042;-77
2023/10/27 02:19:41;;;;;;;;;;;11.30;99.90;;;;;;2623028;47;19954;-77
2023/10/27 02:22:12;;;;;;;;;;;11.30;99.90;;;;;;2620015;47;19946;-77
2023/10/27 02:24:45;;;;;;;;;;;11.30;99.90;;;;;;2619899;39;20447;-76
2023/10/27 02:29:47;;;;;;;;;;;11.30;99.90;;;;;;2625536;54;19971;-77
2023/10/27 02:32:16;;;;;;;;;;;11.30;99.90;;;;;;2620792;54;19951;-77
2023/10/27 02:34:46;;;;;;;;;;;11.30;99.90;;;;;;2619836;47;20035;-77
2023/10/27 02:37:16;;;;;;;;;;;11.30;99.90;;;;;;2619044;39;20554;-78
2023/10/27 02:39:56;;;;;;;;;;;11.30;99.90;;;;;;2620893;54;19982;-77
2023/10/27 02:42:26;;;;;;;;;;;11.20;99.90;;;;;;2620974;47;20417;-77
2023/10/27 02:44:56;;;;;;;;;;;11.20;99.90;;;;;;2622269;54;19939;-77
2023/10/27 02:47:26;;;;;;;;;;;11.20;99.90;;;;;;2626921;39;20345;-78
2023/10/27 02:49:56;;;;;;;;;;;11.20;99.90;;;;;;2621047;47;19947;-77
2023/10/27 02:52:26;;;;;;;;;;;11.20;99.90;;;;;;2620542;54;19991;-76
2023/10/27 02:54:58;;;;;;;;;;;11.10;99.90;;;;;;2620037;47;19938;-76
2023/10/27 02:57:28;;;;;;;;;;;11.80;99.90;;;;;;2619556;46;19977;-77
2023/10/27 02:59:58;;;;;;;;;;;11.10;99.90;;;;;;2619797;54;19950;-77
2023/10/27 03:02:28;;;;;;;;;;;11.20;99.90;;;;;;2619433;47;19998;-76
2023/10/27 03:04:58;;;;;;;;;;;11.20;99.90;;;;;;2618527;54;19946;-76
2023/10/27 03:07:29;;;;;;;;;;;11.20;99.90;;;;;;2619746;47;19934;-76
2023/10/27 03:10:02;;;;;;;;;;;11.20;99.90;;;;;;2619774;47;19938;-77
2023/10/27 03:12:34;;;;;;;;;;;11.20;99.90;;;;;;2620463;54;19946;-77
2023/10/27 03:15:03;;;;;;;;;;;11.20;99.90;;;;;;2622457;47;19963;-78
2023/10/27 03:17:33;;;;;;;;;;;11.20;99.90;;;;;;2626916;54;19935;-78
2023/10/27 03:20:04;;;;;;;;;;;11.20;99.90;;;;;;2626007;47;19938;-77
2023/10/27 03:22:35;;;;;;;;;;;12.00;99.90;;;;;;2624062;47;19954;-77
2023/10/27 03:25:08;;;;;;;;;;;11.30;99.90;;;;;;2622274;47;20033;-77
2023/10/27 03:27:38;;;;;;;;;;;11.30;99.90;;;;;;2624486;47;19934;-76
2023/10/27 03:30:09;;;;;;;;;;;11.30;99.90;;;;;;2629196;47;19942;-77
2023/10/27 03:32:39;;;;;;;;;;;11.30;99.90;;;;;;2619679;54;19970;-76
2023/10/27 03:35:09;;;;;;;;;;;11.30;99.90;;;;;;2620352;47;19947;-78
2023/10/27 03:37:39;;;;;;;;;;;11.30;99.90;;;;;;2617898;47;20026;-78
2023/10/27 03:40:13;;;;;;;;;;;11.40;99.90;;;;;;2620142;39;20344;-75
2023/10/27 03:42:43;;;;;;;;;;;11.30;99.90;;;;;;2619601;47;19939;-78
2023/10/27 03:45:13;;;;;;;;;;;11.30;99.90;;;;;;2619739;47;20453;-77
2023/10/27 03:47:43;;;;;;;;;;;11.30;99.90;;;;;;2621829;47;19950;-76
2023/10/27 03:50:13;;;;;;;;;;;11.30;99.90;;;;;;2621836;54;19938;-76
2023/10/27 03:52:43;;;;;;;;;;;11.30;99.90;;;;;;2619191;47;19946;-77
2023/10/27 03:55:16;;;;;;;;;;;11.30;99.90;;;;;;2620086;54;20061;-77
2023/10/27 03:57:46;;;;;;;;;;;11.40;99.90;;;;;;2619169;47;19946;-76
2023/10/27 04:00:16;;;;;;;;;;;11.30;99.90;;;;;;2619008;47;19954;-77
2023/10/27 04:02:46;;;;;;;;;;;11.40;99.90;;;;;;2617688;47;19947;-77
2023/10/27 04:05:16;;;;;;;;;;;11.40;99.90;;;;;;2617673;54;19946;-78
2023/10/27 04:07:46;;;;;;;;;;;11.40;99.90;;;;;;2617949;47;20541;-77
2023/10/27 04:10:18;;;;;;;;;;;11.40;99.90;;;;;;2618681;47;19965;-77
2023/10/27 04:12:50;;;;;;;;;;;11.40;99.90;;;;;;2618342;47;19966;-77
2023/10/27 04:15:20;;;;;;;;;;;11.40;99.90;;;;;;2618868;39;20408;-76
2023/10/27 04:17:50;;;;;;;;;;;11.40;99.90;;;;;;2619701;39;20047;-78
2023/10/27 04:20:20;;;;;;;;;;;11.50;99.90;;;;;;2618881;47;19945;-77
2023/10/27 04:22:50;;;;;;;;;;;11.40;99.90;;;;;;2619922;47;19967;-77
2023/10/27 04:25:23;;;;;;;;;;;11.40;99.90;;;;;;2619497;39;20447;-77
2023/10/27 04:27:53;;;;;;;;;;;11.40;99.90;;;;;;2619709;39;20352;-76
2023/10/27 04:30:23;;;;;;;;;;;11.40;99.90;;;;;;2628692;47;19926;-75
2023/10/27 04:32:55;;;;;;;;;;;11.40;99.90;;;;;;2619667;47;19942;-78
2023/10/27 04:35:25;;;;;;;;;;;11.40;99.90;;;;;;2618589;47;19939;-77
2023/10/27 04:37:56;;;;;;;;;;;11.40;99.90;;;;;;2619939;47;19945;-77
2023/10/27 04:40:30;;;;;;;;;;;11.40;99.90;;;;;;2620080;47;19990;-77
2023/10/27 04:43:00;;;;;;;;;;;11.40;99.90;;;;;;2620290;47;19999;-77
2023/10/27 04:45:30;;;;;;;;;;;11.40;99.90;;;;;;2621105;47;20010;-77
2023/10/27 04:48:00;;;;;;;;;;;11.40;99.90;;;;;;2621463;46;19939;-77
2023/10/27 04:50:32;;;;;;;;;;;11.30;99.90;;;;;;2622612;46;19935;-77
2023/10/27 04:53:02;;;;;;;;;;;11.30;99.90;;;;;;2626421;47;19985;-77
2023/10/27 04:55:35;;;;;;;;;;;11.40;99.90;;;;;;2621422;54;19946;-77
2023/10/27 04:58:05;;;;;;;;;;;11.40;99.90;;;;;;2622985;39;20376;-77
2023/10/27 05:00:35;;;;;;;;;;;11.40;99.90;;;;;;2621348;47;19934;-76
2023/10/27 05:03:05;;;;;;;;;;;10.80;99.90;;;;;;2621530;54;19943;-77
2023/10/27 05:05:35;;;;;;;;;;;11.40;99.90;;;;;;2624180;54;19946;-77
2023/10/27 05:08:05;;;;;;;;;;;11.40;99.90;;;;;;2623136;47;19951;-77
2023/10/27 05:10:40;;;;;;;;;;;11.40;99.90;;;;;;2620634;54;19950;-77
2023/10/27 05:13:10;;;;;;;;;;;11.40;99.90;;;;;;2619456;47;19947;-78
2023/10/27 05:15:40;;;;;;;;;;;11.40;99.90;;;;;;2624299;47;19991;-77
2023/10/27 05:18:10;;;;;;;;;;;11.40;99.90;;;;;;2628223;47;19927;-76
2023/10/27 05:20:40;;;;;;;;;;;11.40;99.90;;;;;;2626431;54;19979;-78
2023/10/27 05:23:10;;;;;;;;;;;11.40;99.90;;;;;;2621569;31;20403;-77
2023/10/27 05:25:43;;;;;;;;;;;11.40;99.90;;;;;;2620177;47;19943;-77
2023/10/27 05:28:12;;;;;;;;;;;11.40;99.90;;;;;;2622328;47;19979;-77
2023/10/27 05:30:46;;;;;;;;;;;11.40;99.90;;;;;;2629972;54;19950;-77
2023/10/27 05:33:15;;;;;;;;;;;11.50;99.90;;;;;;2622991;54;19935;-76
2023/10/27 05:35:45;;;;;;;;;;;11.50;99.90;;;;;;2621159;46;19961;-77
2023/10/27 05:38:15;;;;;;;;;;;11.40;99.90;;;;;;2622269;54;19958;-77
2023/10/27 05:40:47;;;;;;;;;;;11.40;99.90;;;;;;2623159;31;20414;-77
2023/10/27 05:43:17;;;;;;;;;;;11.50;99.90;;;;;;2620600;54;19958;-77
2023/10/27 05:45:47;;;;;;;;;;;11.50;99.90;;;;;;2621220;47;20094;-77
2023/10/27 05:48:17;;;;;;;;;;;11.50;99.90;;;;;;2621033;54;19946;-77
2023/10/27 05:50:47;;;;;;;;;;;11.50;99.90;;;;;;2620942;46;19973;-77
2023/10/27 05:53:17;;;;;;;;;;;11.50;99.90;;;;;;2621209;47;19942;-77
2023/10/27 05:55:49;;;;;;;;;;;11.50;99.90;;;;;;2626629;54;19962;-78
2023/10/27 05:58:20;;;;;;;;;;;11.60;99.90;;;;;;2621529;47;19947;-78
2023/10/27 06:00:50;;;;;;;;;;;11.60;99.90;;;;;;2621401;47;20314;-77
2023/10/27 06:03:20;;;;;;;;;;;11.60;99.90;;;;;;2622808;47;19962;-79
2023/10/27 06:05:52;;;;;;;;;;;11.60;99.90;;;;;;2625001;47;19958;-78
2023/10/27 06:08:25;;;;;;;;;;;11.60;99.90;;;;;;2625377;54;19983;-79
2023/10/27 06:10:58;;;;;;;;;;;11.70;99.90;;;;;;2625063;54;19946;-79
2023/10/27 06:13:28;;;;;;;;;;;11.70;99.90;;;;;;2624198;54;19939;-79
2023/10/27 06:15:58;;;;;;;;;;;11.70;99.90;;;;;;2622926;54;20054;-80
2023/10/27 06:18:28;;;;;;;;;;;11.70;99.90;;;;;;2621549;39;20415;-80
2023/10/27 06:20:57;;;;;;;;;;;11.70;99.90;;;;;;2622046;47;19953;-78
2023/10/27 06:23:27;;;;;;;;;;;11.70;99.90;;;;;;2619270;39;20908;-76
2023/10/27 06:26:00;;;;;;;;;;;11.70;99.90;;;;;;2620728;47;19939;-78
2023/10/27 06:28:30;;;;;;;;;;;11.30;99.90;;;;;;2625514;47;19934;-78
2023/10/27 06:31:00;;;;;;;;;;;11.70;99.90;;;;;;2625688;54;19954;-78
2023/10/27 06:33:32;;;;;;;;;;;11.70;99.90;;;;;;2630600;54;19942;-76
2023/10/27 06:36:02;;;;;;;;;;;11.60;99.90;;;;;;2626851;47;19950;-78
2023/10/27 06:38:32;;;;;;;;;;;11.70;99.90;;;;;;2624464;47;19943;-78
2023/10/27 06:41:05;;;;;;;;;;;11.70;99.90;;;;;;2625348;47;19939;-77
2023/10/27 06:43:34;;;;;;;;;;;11.70;99.90;;;;;;2624940;54;20416;-77
2023/10/27 06:46:04;;;;;;;;;;;11.70;99.90;;;;;;2625196;47;19938;-77
2023/10/27 06:48:34;;;;;;;;;;;11.70;99.90;;;;;;2625468;46;19947;-78
2023/10/27 06:51:04;;;;;;;;;;;11.80;99.90;;;;;;2625101;47;19934;-78
2023/10/27 06:53:34;;;;;;;;;;;11.70;99.90;;;;;;2624481;39;20452;-77
2023/10/27 06:56:07;;;;;;;;;;;11.80;99.90;;;;;;2624268;54;19946;-77
2023/10/27 06:58:38;;;;;;;;;;;11.80;99.90;;;;;;2623684;54;19939;-76
2023/10/27 07:01:08;;;;;;;;;;;11.80;99.90;;;;;;2620146;47;19930;-77
2023/10/27 07:03:38;;;;;;;;;;;11.80;99.90;;;;;;2622243;39;20361;-78
2023/10/27 07:06:08;;;;;;;;;;;11.80;99.90;;;;;;2626209;31;20469;-79
2023/10/27 07:08:38;;;;;;;;;;;11.80;99.90;;;;;;2630537;47;19966;-83
2023/10/27 07:11:11;;;;;;;;;;;11.90;99.90;;;;;;2636712;31;20664;-80
2023/10/27 07:13:40;;;;;;;;;;;11.90;99.90;;;;;;2623055;54;19939;-76
2023/10/27 07:16:10;;;;;;;;;;;11.90;99.90;;;;;;2617232;54;20437;-77
2023/10/27 07:18:40;;;;;;;;;;;11.90;99.90;;;;;;2615719;47;19955;-77
2023/10/27 07:21:12;;;;;;;;;;;11.90;99.90;;;;;;2617134;47;19961;-77
2023/10/27 07:23:41;;;;;;;;;;;12.00;99.90;;;;;;2618052;54;19958;-77
2023/10/27 07:26:17;;;;;;;;;;;12.00;99.90;;;;;;2618981;54;19941;-75
2023/10/27 07:28:47;;;;;;;;;;;12.00;99.90;;;;;;2617766;47;20433;-78
2023/10/27 07:31:17;;;;;;;;;;;12.00;99.90;;;;;;2617774;47;19950;-76
2023/10/27 07:33:47;;;;;;;;;;;12.00;99.90;;;;;;2615034;47;19946;-76
2023/10/27 07:36:16;;;;;;;;;;;12.00;99.90;;;;;;2616258;47;19950;-75
2023/10/27 07:38:46;;;;;;;;;;;12.00;99.90;;;;;;2617228;47;19939;-76
2023/10/27 07:41:18;;;;;;;;;;;12.00;99.90;;;;;;2617194;47;19946;-75
2023/10/27 07:43:48;;;;;;;;;;;12.10;99.90;;;;;;2616674;54;19946;-77
2023/10/27 07:46:18;;;;;;;;;;;12.10;99.90;;;;;;2616309;47;20433;-75
2023/10/27 07:48:48;;;;;;;;;;;12.10;99.90;;;;;;2616577;54;19958;-75
2023/10/27 07:51:18;;;;;;;;;;;12.10;99.90;;;;;;2616536;47;19942;-76
2023/10/27 07:53:47;;;;;;;;;;;12.10;99.90;;;;;;2616220;47;20442;-76
2023/10/27 07:56:20;;;;;;;;;;;12.10;99.90;;;;;;2618720;39;20349;-76
2023/10/27 07:58:49;;;;;;;;;;;12.10;99.90;;;;;;2619105;47;19935;-76
2023/10/27 08:01:19;;;;;;;;;;;12.10;99.90;;;;;;2618893;54;19961;-76
2023/10/27 08:03:49;;;;;;;;;;;12.10;99.90;;;;;;2618547;39;20402;-76
2023/10/27 08:06:19;;;;;;;;;;;12.10;99.90;;;;;;2626345;46;20032;-74
2023/10/27 08:08:48;;;;;;;;;;;12.00;99.90;;;;;;2628300;54;19951;-76
2023/10/27 08:11:21;;;;;;;;;;;12.00;99.90;;;;;;2615276;47;19938;-76
2023/10/27 08:13:51;;;;;;;;;;;12.00;99.90;;;;;;2603224;47;19950;-76
2023/10/27 08:16:21;;;;;;;;;;;12.10;99.90;;;;;;2598016;47;20269;-76
2023/10/27 08:18:51;;;;;;;;;;;12.00;99.90;;;;;;2596896;54;20678;-74
2023/10/27 08:21:20;;;;;;;;;;;12.00;99.90;;;;;;2599889;54;20441;-74
2023/10/27 08:23:50;;;;;;;;;;;12.00;99.90;;;;;;2595313;47;19954;-74
2023/10/27 08:26:22;;;;;;;;;;;12.00;99.90;;;;;;2596715;54;19947;-74
2023/10/27 08:28:52;;;;;;;;;;;12.00;99.90;;;;;;2599244;51;20434;-74
2023/10/27 08:31:22;;;;;;;;;;;12.00;99.90;;;;;;2598041;54;19973;-75
2023/10/27 08:33:51;;;;;;;;;;;11.80;99.90;;;;;;2597574;47;20083;-76
2023/10/27 08:36:21;;;;;;;;;;;12.00;99.90;;;;;;2598372;47;19979;-74
2023/10/27 08:38:54;;;;;;;;;;;11.90;99.90;;;;;;2599670;47;19950;-75
2023/10/27 08:41:28;;;;;;;;;;;11.90;99.90;;;;;;2611831;39;20324;-80
2023/10/27 08:43:59;;;;;;;;;;;11.70;99.90;;;;;;2621180;54;19947;-80
2023/10/27 08:46:50;;;;;;;;;;;12.00;99.90;;;;;;2627277;47;19991;-80
2023/10/27 08:49:21;;;;;;;;;;;12.60;99.90;;;;;;2622674;47;19954;-81
2023/10/27 08:51:51;;;;;;;;;;;12.00;99.90;;;;;;2621368;54;19949;-79
2023/10/27 08:54:22;;;;;;;;;;;12.00;99.90;;;;;;2623043;47;20622;-81
2023/10/27 08:56:55;;;;;;;;;;;12.10;99.90;;;;;;2623304;47;19962;-81
2023/10/27 08:59:26;;;;;;;;;;;12.10;99.90;;;;;;2623449;46;19946;-79
2023/10/27 09:01:56;;;;;;;;;;;12.10;99.90;;;;;;2623804;47;19958;-78
2023/10/27 09:04:26;;;;;;;;;;;12.10;99.90;;;;;;2623296;39;20954;-79
2023/10/27 09:06:56;;;;;;;;;;;12.20;99.90;;;;;;2624185;54;19946;-80
2023/10/27 09:09:26;;;;;;;;;;;12.20;99.90;;;;;;2624011;47;19949;-80
2023/10/27 09:11:59;;;;;;;;;;;12.20;99.90;;;;;;2626892;47;20555;-83
2023/10/27 09:14:32;;;;;;;;;;;12.20;99.90;;;;;;2624321;54;20417;-81
2023/10/27 09:17:06;;;;;;;;;;;12.10;99.90;;;;;;2625267;54;19949;-81
2023/10/27 09:19:37;;;;;;;;;;;12.20;99.90;;;;;;2626159;47;19946;-81
2023/10/27 09:22:17;;;;;;;;;;;12.20;99.90;;;;;;2623501;47;19992;-78
2023/10/27 09:24:48;;;;;;;;;;;12.10;99.90;;;;;;2627201;54;19993;-82
2023/10/27 09:27:29;;;;;;;;;;;12.20;99.90;;;;;;2629729;46;19964;-83
2023/10/27 09:29:59;;;;;;;;;;;12.20;99.90;;;;;;2628873;54;19943;-83
2023/10/27 09:32:29;;;;;;;;;;;12.20;99.90;;;;;;2628188;47;19990;-82
2023/10/27 09:35:10;;;;;;;;;;;12.20;99.90;;;;;;2629272;54;20006;-82
2023/10/27 09:37:41;;;;;;;;;;;12.10;99.90;;;;;;2629437;47;19943;-84
2023/10/27 09:40:13;;;;;;;;;;;12.20;99.90;;;;;;2629521;47;20003;-82
2023/10/27 09:42:46;;;;;;;;;;;12.30;99.90;;;;;;2629785;54;19927;-84
2023/10/27 09:45:16;;;;;;;;;;;12.30;99.90;;;;;;2629563;54;19950;-83
2023/10/27 09:47:48;;;;;;;;;;;12.20;99.90;;;;;;2629958;47;19957;-82
2023/10/27 09:50:20;;;;;;;;;;;12.30;99.90;;;;;;2630198;54;19949;-83
2023/10/27 09:52:51;;;;;;;;;;;13.60;99.90;;;;;;2630597;47;19939;-83
2023/10/27 09:55:21;;;;;;;;;;;12.40;99.90;;;;;;2630922;54;19939;-83
2023/10/27 09:57:54;;;;;;;;;;;12.50;99.90;;;;;;2631019;54;20549;-83
2023/10/27 10:00:25;;;;;;;;;;;12.40;99.90;;;;;;2630494;47;19947;-83
2023/10/27 10:02:55;;;;;;;;;;;12.50;99.90;;;;;;2630564;54;19966;-82
2023/10/27 10:05:26;;;;;;;;;;;12.60;99.90;;;;;;2630764;54;19957;-83
2023/10/27 10:07:56;;;;;;;;;;;12.70;99.90;;;;;;2630849;54;19943;-84
2023/10/27 10:10:32;;;;;;;;;;;11.70;99.90;;;;;;2630851;47;19934;-82
2023/10/27 10:13:03;;;;;;;;;;;12.80;99.90;;;;;;2630723;47;19949;-82
2023/10/27 10:15:34;;;;;;;;;;;13.00;99.90;;;;;;2630899;47;19927;-81
2023/10/27 10:18:04;;;;;;;;;;;13.20;99.90;;;;;;2630936;47;20268;-81
2023/10/27 10:21:01;;;;;;;;;;;13.10;99.90;;;;;;2630657;47;19950;-83
2023/10/27 10:23:48;;;;;;;;;;;13.20;99.90;;;;;;2630335;54;19942;-83
2023/10/27 10:26:18;;;;;;;;;;;13.20;99.90;;;;;;2630625;46;19937;-82
2023/10/27 10:28:51;;;;;;;;;;;13.20;99.90;;;;;;2630633;54;19939;-83
2023/10/27 10:31:25;;;;;;;;;;;13.20;99.90;;;;;;2630384;54;19966;-83
2023/10/27 10:34:13;;;;;;;;;;;13.20;99.90;;;;;;2633207;39;19999;-82
2023/10/27 10:36:44;;;;;;;;;;;13.20;99.90;;;;;;2630617;47;19954;-82
2023/10/27 10:39:13;;;;;;;;;;;13.10;99.90;;;;;;2630678;47;19971;-83
2023/10/27 10:41:56;;;;;;;;;;;13.10;99.90;;;;;;2630642;54;19956;-82
2023/10/27 10:44:28;;;;;;;;;;;13.10;99.90;;;;;;2630651;47;19942;-83
2023/10/27 10:47:00;;;;;;;;;;;13.10;99.90;;;;;;2630527;46;19942;-83
2023/10/27 10:49:30;;;;;;;;;;;13.20;99.90;;;;;;2630677;47;19926;-83
2023/10/27 10:52:02;;;;;;;;;;;13.20;99.90;;;;;;2632322;39;20339;-83
2023/10/27 10:54:33;;;;;;;;;;;13.10;99.90;;;;;;2630489;47;19942;-83
2023/10/27 10:57:04;;;;;;;;;;;13.50;99.90;;;;;;2630646;47;19949;-83
2023/10/27 10:59:37;;;;;;;;;;;13.10;99.90;;;;;;2630658;54;19983;-84
2023/10/27 11:02:07;;;;;;;;;;;13.20;99.90;;;;;;2630841;47;19979;-83
2023/10/27 11:04:37;;;;;;;;;;;14.60;99.90;;;;;;2630703;47;19927;-84
2023/10/27 11:07:18;;;;;;;;;;;13.40;99.90;;;;;;2630725;47;19955;-83
2023/10/27 11:09:48;;;;;;;;;;;13.50;99.90;;;;;;2630618;47;19998;-84
2023/10/27 11:12:28;;;;;;;;;;;13.60;99.90;;;;;;2630598;54;19942;-83
2023/10/27 11:15:01;;;;;;;;;;;13.70;99.90;;;;;;2630337;54;20006;-83
2023/10/27 11:17:45;;;;;;;;;;;15.30;99.90;;;;;;2630240;47;19961;-83
2023/10/27 11:20:16;;;;;;;;;;;14.00;99.90;;;;;;2630477;46;19927;-84
2023/10/27 11:22:46;;;;;;;;;;;14.20;99.90;;;;;;2630723;47;19927;-83
2023/10/27 11:25:28;;;;;;;;;;;14.50;99.90;;;;;;2630507;47;19942;-84
2023/10/27 11:27:58;;;;;;;;;;;14.70;99.90;;;;;;2630536;54;19939;-84
2023/10/27 11:30:31;;;;;;;;;;;14.80;99.90;;;;;;2630307;54;19926;-84
2023/10/27 11:33:08;;;;;;;;;;;14.90;99.90;;;;;;2630515;54;19953;-83
2023/10/27 11:35:46;;;;;;;;;;;15.00;99.90;;;;;;2630593;54;19959;-83
2023/10/27 11:38:16;;;;;;;;;;;16.40;99.90;;;;;;2630466;47;19949;-84
2023/10/27 11:40:46;;;;;;;;;;;15.40;99.90;;;;;;2637291;39;20545;-83
2023/10/27 11:43:16;;;;;;;;;;;15.40;99.90;;;;;;2629983;47;19950;-82
2023/10/27 11:45:50;;;;;;;;;;;15.60;99.90;;;;;;2630406;46;20053;-82
2023/10/27 11:48:20;;;;;;;;;;;15.70;99.90;;;;;;2630639;51;19951;-82
2023/10/27 11:50:50;;;;;;;;;;;15.90;99.90;;;;;;2630616;47;19933;-83
2023/10/27 11:53:20;;;;;;;;;;;16.00;99.90;;;;;;2630492;47;19956;-83
2023/10/27 11:55:50;;;;;;;;;;;16.00;99.90;;;;;;2630223;54;19927;-81
2023/10/27 11:58:20;;;;;;;;;;;16.10;99.90;;;;;;2628874;54;19954;-81
2023/10/27 12:00:52;;;;;;;;;;;16.10;99.90;;;;;;2628662;47;19951;-81
2023/10/27 12:03:22;;;;;;;;;;;16.20;99.90;;;;;;2628523;54;19926;-81
2023/10/27 12:05:52;;;;;;;;;;;15.70;99.90;;;;;;2629117;54;19999;-81
2023/10/27 12:08:23;;;;;;;;;;;16.10;99.90;;;;;;2628235;54;19958;-82
2023/10/27 12:10:53;;;;;;;;;;;16.00;99.90;;;;;;2629039;54;19951;-81
2023/10/27 12:13:26;;;;;;;;;;;16.20;99.90;;;;;;2628233;54;19946;-80
2023/10/27 12:15:59;;;;;;;;;;;15.90;99.90;;;;;;2629763;54;19943;-83
2023/10/27 12:18:32;;;;;;;;;;;15.80;99.90;;;;;;2630459;54;19946;-82
2023/10/27 12:21:03;;;;;;;;;;;15.60;99.90;;;;;;2630550;47;19973;-82
2023/10/27 12:23:33;;;;;;;;;;;15.60;99.90;;;;;;2630230;47;19950;-82
2023/10/27 12:26:04;;;;;;;;;;;15.50;99.90;;;;;;2630378;47;19942;-83
2023/10/27 12:28:34;;;;;;;;;;;16.60;99.90;;;;;;2630577;54;19946;-83
2023/10/27 12:31:06;;;;;;;;;;;15.30;99.90;;;;;;2632170;39;20577;-83
2023/10/27 12:33:36;;;;;;;;;;;15.30;99.90;;;;;;2631355;47;19942;-82
2023/10/27 12:36:10;;;;;;;;;;;15.20;99.90;;;;;;2631217;47;19950;-83
2023/10/27 12:38:41;;;;;;;;;;;15.10;99.90;;;;;;2631269;51;19949;-83
2023/10/27 12:41:13;;;;;;;;;;;15.10;99.90;;;;;;2631193;47;19942;-83
2023/10/27 12:43:43;;;;;;;;;;;15.10;99.90;;;;;;2631067;47;19939;-83
2023/10/27 12:46:15;;;;;;;;;;;14.90;99.90;;;;;;2630458;54;19954;-81
2023/10/27 12:48:47;;;;;;;;;;;14.80;99.90;;;;;;2630277;54;19970;-81
2023/10/27 12:51:18;;;;;;;;;;;14.80;99.90;;;;;;2628449;54;19950;-81
2023/10/27 12:53:48;;;;;;;;;;;15.00;99.90;;;;;;2628403;47;19962;-80
2023/10/27 12:56:18;;;;;;;;;;;14.70;99.90;;;;;;2628735;54;19943;-81
2023/10/27 12:58:48;;;;;;;;;;;14.60;99.90;;;;;;2628619;54;19953;-81
2023/10/27 13:01:21;;;;;;;;;;;14.50;99.90;;;;;;2629283;47;19942;-82
2023/10/27 13:03:52;;;;;;;;;;;14.50;99.90;;;;;;2630462;54;19965;-81
2023/10/27 13:06:21;;;;;;;;;;;14.40;99.90;;;;;;2630388;54;20278;-81
2023/10/27 13:08:51;;;;;;;;;;;14.40;99.90;;;;;;2629428;47;19939;-81
2023/10/27 13:11:22;;;;;;;;;;;14.40;99.90;;;;;;2629423;54;19962;-83
2023/10/27 13:13:52;;;;;;;;;;;14.80;99.90;;;;;;2631076;54;20010;-84
2023/10/27 13:16:25;;;;;;;;;;;14.50;99.90;;;;;;2631199;47;19951;-84
2023/10/27 13:18:55;;;;;;;;;;;14.50;99.90;;;;;;2631186;54;19973;-84
2023/10/27 13:21:25;;;;;;;;;;;14.60;99.90;;;;;;2631197;47;19943;-83
2023/10/27 13:23:56;;;;;;;;;;;14.70;99.90;;;;;;2630932;47;19943;-84
2023/10/27 13:26:26;;;;;;;;;;;14.60;99.90;;;;;;2630831;47;19934;-84
2023/10/27 13:29:01;;;;;;;;;;;14.60;99.90;;;;;;2630726;47;19943;-84
2023/10/27 13:31:44;;;;;;;;;;;14.60;99.90;;;;;;2630245;46;19938;-84
2023/10/27 13:34:26;;;;;;;;;;;14.60;99.90;;;;;;2628989;46;19964;-80
2023/10/27 13:36:55;;;;;;;;;;;14.50;99.90;;;;;;2625010;47;19939;-80
2023/10/27 13:39:25;;;;;;;;;;;14.50;99.90;;;;;;2622087;46;19980;-80
2023/10/27 13:41:55;;;;;;;;;;;14.50;99.90;;;;;;2622508;47;20024;-82
2023/10/27 13:44:27;;;;;;;;;;;14.40;99.90;;;;;;2617589;54;19954;-76
2023/10/27 13:47:02;;;;;;;;;;;14.40;99.90;;;;;;2616329;47;19947;-76
2023/10/27 13:49:32;;;;;;;;;;;14.30;99.90;;;;;;2616626;54;20042;-76
2023/10/27 13:52:02;;;;;;;;;;;14.30;99.90;;;;;;2616345;47;20456;-77
2023/10/27 13:54:32;;;;;;;;;;;14.40;99.90;;;;;;2617269;39;20235;-75
2023/10/27 13:57:03;;;;;;;;;;;14.50;99.90;;;;;;2617669;47;20545;-77
2023/10/27 13:59:33;;;;;;;;;;;14.60;99.90;;;;;;2615765;47;19959;-78
2023/10/27 14:02:12;;;;;;;;;;;14.60;99.90;;;;;;2614296;47;19938;-79
2023/10/27 14:04:47;;;;;;;;;;;14.70;99.90;;;;;;2616641;47;19971;-79
2023/10/27 14:07:17;;;;;;;;;;;14.70;99.90;;;;;;2650761;36;19954;-77
2023/10/27 14:09:51;;;;;;;;;;;14.80;99.90;;;;;;2617449;54;19939;-78
2023/10/27 14:12:21;;;;;;;;;;;14.80;99.90;;;;;;2618213;47;19954;-77
2023/10/27 14:14:51;;;;;;;;;;;14.90;99.90;;;;;;2618059;39;20356;-76
2023/10/27 14:17:24;;;;;;;;;;;15.10;99.90;;;;;;2617329;46;19962;-76
2023/10/27 14:19:54;;;;;;;;;;;15.10;99.90;;;;;;2617889;47;19953;-76
2023/10/27 14:22:25;;;;;;;;;;;15.10;99.90;;;;;;2617940;47;19946;-76
2023/10/27 14:24:55;;;;;;;;;;;15.10;99.90;;;;;;2618233;54;19954;-79
2023/10/27 14:27:27;;;;;;;;;;;15.10;99.90;;;;;;2617847;46;19938;-78
2023/10/27 14:29:58;;;;;;;;;;;15.10;99.90;;;;;;2618040;46;20007;-79
2023/10/27 14:32:30;;;;;;;;;;;15.10;99.90;;;;;;2620455;54;19974;-79
2023/10/27 14:35:02;;;;;;;;;;;15.20;99.90;;;;;;2621195;47;19953;-81
2023/10/27 14:37:33;;;;;;;;;;;15.30;99.90;;;;;;2624932;47;19946;-81
2023/10/27 14:40:04;;;;;;;;;;;15.30;99.90;;;;;;2627098;46;19950;-80
2023/10/27 14:42:34;;;;;;;;;;;15.30;99.90;;;;;;2626866;54;19939;-82
2023/10/27 14:45:05;;;;;;;;;;;15.30;99.90;;;;;;2624485;54;19946;-81
2023/10/27 14:47:37;;;;;;;;;;;15.30;99.90;;;;;;2624871;47;20543;-80
2023/10/27 14:50:13;;;;;;;;;;;15.20;99.90;;;;;;2603151;39;20393;-76
2023/10/27 14:52:43;;;;;;;;;;;14.70;99.90;;;;;;2600130;54;19958;-76
2023/10/27 14:55:14;;;;;;;;;;;15.20;99.90;;;;;;2599743;39;20365;-76
2023/10/27 14:57:44;;;;;;;;;;;15.10;99.90;;;;;;2598489;47;21547;-77
2023/10/27 15:00:14;;;;;;;;;;;15.00;99.90;;;;;;2599260;47;19951;-77
2023/10/27 15:02:47;;;;;;;;;;;15.00;99.90;;;;;;2600070;54;20090;-77
2023/10/27 15:05:22;;;;;;;;;;;15.00;99.90;;;;;;2597153;47;20438;-75
2023/10/27 15:07:52;;;;;;;;;;;14.90;99.90;;;;;;2599694;47;20045;-76
2023/10/27 15:10:23;;;;;;;;;;;14.90;99.90;;;;;;2599704;47;19950;-76
2023/10/27 15:12:52;;;;;;;;;;;14.90;99.90;;;;;;2597985;47;19951;-75
2023/10/27 15:15:22;;;;;;;;;;;14.90;99.90;;;;;;2602887;47;21219;-76
2023/10/27 15:17:54;;;;;;;;;;;14.90;99.90;;;;;;2613179;47;20056;-75
2023/10/27 15:20:24;;;;;;;;;;;15.00;99.90;;;;;;2611787;54;19942;-76